createdAt,value
2018-10-05T00:00:50.793Z,3.33
2018-10-05T00:02:43.789Z,3.33
2018-10-05T00:03:43.843Z,2.95
2018-10-05T00:05:36.825Z,2.28
2018-10-05T00:06:36.884Z,2.38
2018-10-05T00:08:29.875Z,1.90
2018-10-05T00:09:29.924Z,1.52
2018-10-05T00:11:22.915Z,2.09
2018-10-05T00:12:22.965Z,2.57
2018-10-05T00:14:15.962Z,2.28
2018-10-05T00:15:16.015Z,2.57
2018-10-05T00:17:09.013Z,3.33
2018-10-05T00:18:09.064Z,4.47
2018-10-05T00:20:02.045Z,4.09
2018-10-05T00:21:02.105Z,3.71
2018-10-05T00:22:55.096Z,2.76
2018-10-05T00:23:55.146Z,2.66
2018-10-05T00:25:48.127Z,3.05
2018-10-05T00:26:48.187Z,3.14
2018-10-05T00:28:41.187Z,2.57
2018-10-05T00:29:41.239Z,2.95
2018-10-05T00:31:34.220Z,4.19
2018-10-05T00:32:34.338Z,3.90
2018-10-05T00:34:27.271Z,3.33
2018-10-05T00:35:27.319Z,2.95
2018-10-05T00:37:20.320Z,3.05
2018-10-05T00:38:20.372Z,2.57
2018-10-05T00:40:13.365Z,2.28
2018-10-05T00:41:13.423Z,2.00
2018-10-05T00:43:06.414Z,1.33
2018-10-05T00:44:06.461Z,1.62
2018-10-05T00:45:59.444Z,1.62
2018-10-05T00:46:59.501Z,1.04
2018-10-05T00:48:52.493Z,0.95
2018-10-05T00:49:52.543Z,1.43
2018-10-05T00:51:45.523Z,2.28
2018-10-05T00:52:45.582Z,2.00
2018-10-05T00:54:38.575Z,2.57
2018-10-05T00:55:38.623Z,1.71
2018-10-05T00:57:31.615Z,1.71
2018-10-05T00:58:31.667Z,1.71
2018-10-05T01:00:24.651Z,1.23
2018-10-05T01:01:24.709Z,2.09
2018-10-05T01:03:17.703Z,2.19
2018-10-05T01:04:17.749Z,2.09
2018-10-05T01:06:10.731Z,3.05
2018-10-05T01:07:10.794Z,3.33
2018-10-05T01:09:03.784Z,3.99
2018-10-05T01:10:03.831Z,4.19
2018-10-05T01:11:56.813Z,3.42
2018-10-05T01:12:56.876Z,3.61
2018-10-05T01:14:49.863Z,3.42
2018-10-05T01:15:49.912Z,2.19
2018-10-05T01:17:42.909Z,2.19
2018-10-05T01:18:42.963Z,3.05
2018-10-05T01:20:35.954Z,2.85
2018-10-05T01:21:36.007Z,3.61
2018-10-05T01:23:28.999Z,3.33
2018-10-05T01:24:29.052Z,3.61
2018-10-05T01:26:22.042Z,3.23
2018-10-05T01:27:22.096Z,2.95
2018-10-05T01:29:15.089Z,3.23
2018-10-05T01:30:15.140Z,3.14
2018-10-05T01:32:08.118Z,3.52
2018-10-05T01:33:08.177Z,2.76
2018-10-05T01:35:01.167Z,2.57
2018-10-05T01:36:01.220Z,2.09
2018-10-05T01:38:15.222Z,1.42
2018-10-05T01:38:54.315Z,0.47
2018-10-05T01:40:47.245Z,0.47
2018-10-05T01:41:47.301Z,0.57
2018-10-05T01:43:40.292Z,1.04
2018-10-05T01:44:40.340Z,1.14
2018-10-05T01:46:33.319Z,0.95
2018-10-05T01:47:33.376Z,0.28
2018-10-05T01:49:26.368Z,0.09
2018-10-05T01:50:26.417Z,0.00
2018-10-05T01:52:19.396Z,0.00
2018-10-05T01:53:19.455Z,0.00
2018-10-05T01:55:12.448Z,0.00
2018-10-05T01:56:12.497Z,0.00
2018-10-05T01:58:05.490Z,0.00
2018-10-05T01:59:05.539Z,0.09
2018-10-05T02:00:58.525Z,0.00
2018-10-05T02:01:58.583Z,0.00
2018-10-05T02:03:51.579Z,0.47
2018-10-05T02:04:51.627Z,1.14
2018-10-05T02:06:44.608Z,0.95
2018-10-05T02:07:44.665Z,0.95
2018-10-05T02:09:37.657Z,2.19
2018-10-05T02:10:37.704Z,2.28
2018-10-05T02:12:30.684Z,2.66
2018-10-05T02:13:30.743Z,2.00
2018-10-05T02:15:23.735Z,0.19
2018-10-05T02:16:23.784Z,0.67
2018-10-05T02:18:16.817Z,0.67
2018-10-05T02:19:16.827Z,0.85
2018-10-05T02:21:09.809Z,0.57
2018-10-05T02:22:09.860Z,0.00
2018-10-05T02:24:02.852Z,0.28
2018-10-05T02:25:02.910Z,1.04
2018-10-05T02:26:55.880Z,0.47
2018-10-05T02:27:55.939Z,0.38
2018-10-05T02:29:48.938Z,0.38
2018-10-05T02:30:48.990Z,0.57
2018-10-05T02:32:41.988Z,0.67
2018-10-05T02:33:42.032Z,0.28
2018-10-05T02:35:35.028Z,0.00
2018-10-05T02:36:35.083Z,0.00
2018-10-05T02:38:28.073Z,0.00
2018-10-05T02:39:28.126Z,0.00
2018-10-05T02:41:21.113Z,0.00
2018-10-05T02:42:21.169Z,0.00
2018-10-05T02:44:14.161Z,0.00
2018-10-05T02:45:14.214Z,0.00
2018-10-05T02:47:07.195Z,0.00
2018-10-05T02:48:07.253Z,0.00
2018-10-05T02:50:00.239Z,0.00
2018-10-05T02:51:00.292Z,0.00
2018-10-05T02:52:53.291Z,0.00
2018-10-05T02:53:53.341Z,0.00
2018-10-05T02:55:46.330Z,0.00
2018-10-05T02:56:46.381Z,0.00
2018-10-05T02:58:39.373Z,0.00
2018-10-05T02:59:39.421Z,0.00
2018-10-05T03:01:32.399Z,0.00
2018-10-05T03:02:32.457Z,0.00
2018-10-05T03:04:25.961Z,0.00
2018-10-05T03:05:26.011Z,0.00
2018-10-05T03:07:19.002Z,0.00
2018-10-05T03:08:19.059Z,0.00
2018-10-05T03:10:12.055Z,0.00
2018-10-05T03:11:12.111Z,0.00
2018-10-05T03:13:05.089Z,0.00
2018-10-05T03:14:05.146Z,0.00
2018-10-05T03:15:58.144Z,0.00
2018-10-05T03:16:58.193Z,0.00
2018-10-05T03:18:51.185Z,0.00
2018-10-05T03:19:51.317Z,0.00
2018-10-05T03:21:44.220Z,0.00
2018-10-05T03:22:44.275Z,0.00
2018-10-05T03:24:37.272Z,0.00
2018-10-05T03:25:37.321Z,0.00
2018-10-05T03:27:30.306Z,0.00
2018-10-05T03:28:30.365Z,0.00
2018-10-05T03:30:23.350Z,0.00
2018-10-05T03:31:23.410Z,0.00
2018-10-05T03:33:16.400Z,0.00
2018-10-05T03:34:16.449Z,0.00
2018-10-05T03:36:09.440Z,0.00
2018-10-05T03:37:09.492Z,0.00
2018-10-05T03:39:02.477Z,0.00
2018-10-05T03:40:02.529Z,0.00
2018-10-05T03:41:55.509Z,0.09
2018-10-05T03:42:55.568Z,0.00
2018-10-05T03:44:48.557Z,0.57
2018-10-05T03:45:48.604Z,0.85
2018-10-05T03:47:41.588Z,0.09
2018-10-05T03:48:41.937Z,0.28
2018-10-05T03:50:34.638Z,0.00
2018-10-05T03:51:34.685Z,0.00
2018-10-05T03:53:27.667Z,0.00
2018-10-05T03:54:27.727Z,0.00
2018-10-05T03:56:20.716Z,0.00
2018-10-05T03:57:20.768Z,0.00
2018-10-05T03:59:14.266Z,0.00
2018-10-05T04:00:14.343Z,0.00
2018-10-05T04:02:07.294Z,0.00
2018-10-05T04:03:07.352Z,0.00
2018-10-05T04:05:00.344Z,0.00
2018-10-05T04:06:00.395Z,0.00
2018-10-05T04:07:53.389Z,0.00
2018-10-05T04:08:53.444Z,0.00
2018-10-05T04:10:46.436Z,0.00
2018-10-05T04:11:46.486Z,0.00
2018-10-05T04:13:39.466Z,0.00
2018-10-05T04:14:39.526Z,0.00
2018-10-05T04:16:32.519Z,0.00
2018-10-05T04:17:32.570Z,0.00
2018-10-05T04:19:25.556Z,0.00
2018-10-05T04:20:25.605Z,0.00
2018-10-05T04:22:18.588Z,0.00
2018-10-05T04:23:18.646Z,0.00
2018-10-05T04:25:11.637Z,0.00
2018-10-05T04:26:11.687Z,0.00
2018-10-05T04:28:04.670Z,0.00
2018-10-05T04:29:04.727Z,0.00
2018-10-05T04:30:57.719Z,0.00
2018-10-05T04:31:57.768Z,0.00
2018-10-05T04:33:50.751Z,0.00
2018-10-05T04:34:50.813Z,0.00
2018-10-05T04:36:43.801Z,0.00
2018-10-05T04:37:43.855Z,0.00
2018-10-05T04:39:36.840Z,0.00
2018-10-05T04:40:36.890Z,0.00
2018-10-05T04:42:29.878Z,0.00
2018-10-05T04:43:29.935Z,0.00
2018-10-05T04:45:22.932Z,0.00
2018-10-05T04:46:22.979Z,0.00
2018-10-05T04:48:15.961Z,0.00
2018-10-05T04:49:16.020Z,0.00
2018-10-05T04:51:09.013Z,0.00
2018-10-05T04:52:09.062Z,0.00
2018-10-05T04:54:02.052Z,0.00
2018-10-05T04:55:02.108Z,0.00
2018-10-05T04:56:55.175Z,0.00
2018-10-05T04:57:55.143Z,0.00
2018-10-05T04:59:48.131Z,0.00
2018-10-05T05:00:48.179Z,0.00
2018-10-05T05:02:41.170Z,0.00
2018-10-05T05:03:41.228Z,0.00
2018-10-05T05:05:34.211Z,0.00
2018-10-05T05:06:34.259Z,0.00
2018-10-05T05:08:27.247Z,0.00
2018-10-05T05:09:27.301Z,0.00
2018-10-05T05:11:20.290Z,0.00
2018-10-05T05:12:20.342Z,0.00
2018-10-05T05:14:13.322Z,0.00
2018-10-05T05:15:13.377Z,0.00
2018-10-05T05:17:06.371Z,0.00
2018-10-05T05:18:06.420Z,0.00
2018-10-05T05:19:59.413Z,0.00
2018-10-05T05:20:59.466Z,0.00
2018-10-05T05:22:52.448Z,0.00
2018-10-05T05:23:52.503Z,0.00
2018-10-05T05:25:45.535Z,0.00
2018-10-05T05:26:45.544Z,0.00
2018-10-05T05:28:38.525Z,0.00
2018-10-05T05:29:38.585Z,0.00
2018-10-05T05:31:31.610Z,0.00
2018-10-05T05:32:31.627Z,0.00
2018-10-05T05:34:24.605Z,0.00
2018-10-05T05:35:24.664Z,0.00
2018-10-05T05:37:17.652Z,0.00
2018-10-05T05:38:17.701Z,0.00
2018-10-05T05:40:10.725Z,0.00
2018-10-05T05:41:10.748Z,0.00
2018-10-05T05:43:03.738Z,0.00
2018-10-05T05:44:03.796Z,0.00
2018-10-05T05:45:56.785Z,0.00
2018-10-05T05:46:56.925Z,0.00
2018-10-05T05:48:49.819Z,0.00
2018-10-05T05:49:49.879Z,0.00
2018-10-05T05:51:42.859Z,0.00
2018-10-05T05:52:42.917Z,0.00
2018-10-05T05:54:35.957Z,0.00
2018-10-05T05:55:35.954Z,0.00
2018-10-05T05:57:28.952Z,0.00
2018-10-05T05:58:29.003Z,0.00
2018-10-05T06:00:21.994Z,0.00
2018-10-05T06:01:22.043Z,0.00
2018-10-05T06:03:15.034Z,0.00
2018-10-05T06:04:15.090Z,0.00
2018-10-05T06:06:08.082Z,0.00
2018-10-05T06:07:08.131Z,0.00
2018-10-05T06:09:01.118Z,0.00
2018-10-05T06:10:01.175Z,0.00
2018-10-05T06:11:54.165Z,0.00
2018-10-05T06:12:54.213Z,0.00
2018-10-05T06:14:47.196Z,0.00
2018-10-05T06:15:47.253Z,0.00
2018-10-05T06:17:40.250Z,0.00
2018-10-05T06:18:40.301Z,0.00
2018-10-05T06:20:33.292Z,0.00
2018-10-05T06:21:33.387Z,0.00
2018-10-05T06:23:26.326Z,0.00
2018-10-05T06:24:26.382Z,0.00
2018-10-05T06:26:19.374Z,0.00
2018-10-05T06:27:19.495Z,0.00
2018-10-05T06:29:12.412Z,0.00
2018-10-05T06:30:12.471Z,0.00
2018-10-05T06:32:05.466Z,0.00
2018-10-05T06:33:05.535Z,0.00
2018-10-05T06:34:58.499Z,0.00
2018-10-05T06:35:58.555Z,0.00
2018-10-05T06:37:51.552Z,0.00
2018-10-05T06:38:51.602Z,0.00
2018-10-05T06:40:44.630Z,0.00
2018-10-05T06:41:44.660Z,0.00
2018-10-05T06:43:37.630Z,0.00
2018-10-05T06:44:37.681Z,0.00
2018-10-05T06:46:30.692Z,0.00
2018-10-05T06:47:30.735Z,0.00
2018-10-05T06:49:23.719Z,0.00
2018-10-05T06:50:23.776Z,0.00
2018-10-05T06:52:16.765Z,0.00
2018-10-05T06:53:16.885Z,0.00
2018-10-05T06:55:09.798Z,2.28
2018-10-05T06:56:09.859Z,4.66
2018-10-05T06:58:02.848Z,14.30
2018-10-05T06:59:02.896Z,23.85
2018-10-05T07:00:55.889Z,49.59
2018-10-05T07:01:56.026Z,61.38
2018-10-05T07:03:48.919Z,80.48
2018-10-05T07:04:48.980Z,81.38
2018-10-05T07:06:41.964Z,68.77
2018-10-05T07:07:42.037Z,61.25
2018-10-05T07:09:35.002Z,42.57
2018-10-05T07:10:35.060Z,33.03
2018-10-05T07:12:28.059Z,28.06
2018-10-05T07:13:28.111Z,35.24
2018-10-05T07:15:21.097Z,71.14
2018-10-05T07:16:21.159Z,85.78
2018-10-05T07:18:14.150Z,96.94
2018-10-05T07:19:14.200Z,97.14
2018-10-05T07:21:07.251Z,85.21
2018-10-05T07:22:07.249Z,81.70
2018-10-05T07:24:00.242Z,77.01
2018-10-05T07:25:00.302Z,75.32
2018-10-05T07:26:53.297Z,70.41
2018-10-05T07:27:53.355Z,71.53
2018-10-05T07:29:46.344Z,73.28
2018-10-05T07:30:46.401Z,75.02
2018-10-05T07:32:39.400Z,73.71
2018-10-05T07:33:39.453Z,72.78
2018-10-05T07:35:32.435Z,72.30
2018-10-05T07:36:32.503Z,71.18
2018-10-05T07:38:25.511Z,69.96
2018-10-05T07:39:25.567Z,69.48
2018-10-05T07:41:18.578Z,67.58
2018-10-05T07:42:18.634Z,66.91
2018-10-05T07:44:11.636Z,67.14
2018-10-05T07:45:11.697Z,66.62
2018-10-05T07:47:04.698Z,68.23
2018-10-05T07:48:04.752Z,67.71
2018-10-05T07:49:57.753Z,70.02
2018-10-05T07:50:57.816Z,69.79
2018-10-05T07:52:50.817Z,71.47
2018-10-05T07:53:50.872Z,71.34
2018-10-05T07:55:43.873Z,69.67
2018-10-05T07:56:43.937Z,69.13
2018-10-05T07:58:37.451Z,66.72
2018-10-05T07:59:37.509Z,66.59
2018-10-05T08:01:30.510Z,66.97
2018-10-05T08:02:30.565Z,64.72
2018-10-05T08:04:23.567Z,64.37
2018-10-05T08:05:23.632Z,63.50
2018-10-05T08:07:16.641Z,63.79
2018-10-05T08:08:16.729Z,63.50
2018-10-05T08:10:09.692Z,63.98
2018-10-05T08:11:09.760Z,63.40
2018-10-05T08:13:02.767Z,64.21
2018-10-05T08:14:02.823Z,63.85
2018-10-05T08:15:55.820Z,60.72
2018-10-05T08:16:55.884Z,60.02
2018-10-05T08:18:48.889Z,59.83
2018-10-05T08:19:48.952Z,60.96
2018-10-05T08:21:42.070Z,60.60
2018-10-05T08:22:42.020Z,59.53
2018-10-05T08:24:35.026Z,59.25
2018-10-05T08:25:35.096Z,60.54
2018-10-05T08:27:28.099Z,62.73
2018-10-05T08:28:28.162Z,63.02
2018-10-05T08:30:21.162Z,64.05
2018-10-05T08:31:21.228Z,63.40
2018-10-05T08:33:14.235Z,61.99
2018-10-05T08:34:14.376Z,61.70
2018-10-05T08:36:07.296Z,61.66
2018-10-05T08:37:07.364Z,60.11
2018-10-05T08:39:00.366Z,60.79
2018-10-05T08:40:00.537Z,60.96
2018-10-05T08:41:53.451Z,61.22
2018-10-05T08:42:53.501Z,63.15
2018-10-05T08:44:46.502Z,70.15
2018-10-05T08:45:46.589Z,75.49
2018-10-05T08:47:39.568Z,91.33
2018-10-05T08:48:39.628Z,94.54
2018-10-05T08:50:32.657Z,95.50
2018-10-05T08:51:32.720Z,96.66
2018-10-05T08:53:25.697Z,97.14
2018-10-05T08:54:25.761Z,96.32
2018-10-05T08:56:18.755Z,96.32
2018-10-05T08:57:18.817Z,97.66
2018-10-05T08:59:12.325Z,97.04
2018-10-05T09:00:12.525Z,98.24
2018-10-05T09:02:05.389Z,97.47
2018-10-05T09:03:05.441Z,94.69
2018-10-05T09:04:58.449Z,97.66
2018-10-05T09:05:58.507Z,97.33
2018-10-05T09:07:51.510Z,95.36
2018-10-05T09:08:51.566Z,96.80
2018-10-05T09:10:44.568Z,98.33
2018-10-05T09:11:44.624Z,97.38
2018-10-05T09:13:37.635Z,95.98
2018-10-05T09:14:37.693Z,95.17
2018-10-05T09:16:30.682Z,96.70
2018-10-05T09:17:30.749Z,96.99
2018-10-05T09:19:23.740Z,97.09
2018-10-05T09:20:23.800Z,97.09
2018-10-05T09:22:16.798Z,97.33
2018-10-05T09:23:16.861Z,96.99
2018-10-05T09:25:09.862Z,96.80
2018-10-05T09:26:09.919Z,97.14
2018-10-05T09:28:02.919Z,96.08
2018-10-05T09:29:02.977Z,97.52
2018-10-05T09:30:55.975Z,97.14
2018-10-05T09:31:56.033Z,95.79
2018-10-05T09:33:49.044Z,95.31
2018-10-05T09:34:49.095Z,95.79
2018-10-05T09:36:42.084Z,97.24
2018-10-05T09:37:42.261Z,95.50
2018-10-05T09:39:35.148Z,96.75
2018-10-05T09:40:35.201Z,97.57
2018-10-05T09:42:28.191Z,95.84
2018-10-05T09:43:28.252Z,96.80
2018-10-05T09:45:21.319Z,95.36
2018-10-05T09:46:21.310Z,94.88
2018-10-05T09:48:14.344Z,89.79
2018-10-05T09:49:14.360Z,89.02
2018-10-05T09:51:07.353Z,90.75
2018-10-05T09:52:07.473Z,91.81
2018-10-05T09:54:00.411Z,92.10
2018-10-05T09:55:00.463Z,94.40
2018-10-05T09:56:53.453Z,93.87
2018-10-05T09:57:53.520Z,90.31
2018-10-05T09:59:47.146Z,88.68
2018-10-05T10:00:47.083Z,90.51
2018-10-05T10:02:40.073Z,90.22
2018-10-05T10:03:40.135Z,86.47
2018-10-05T10:05:33.132Z,88.10
2018-10-05T10:06:33.185Z,89.64
2018-10-05T10:08:26.196Z,96.61
2018-10-05T10:09:26.242Z,95.17
2018-10-05T10:11:19.235Z,86.61
2018-10-05T10:12:19.299Z,85.46
2018-10-05T10:14:12.302Z,90.36
2018-10-05T10:15:12.355Z,85.94
2018-10-05T10:17:05.353Z,84.54
2018-10-05T10:18:05.413Z,83.48
2018-10-05T10:19:58.413Z,80.79
2018-10-05T10:20:58.469Z,78.63
2018-10-05T10:22:51.468Z,84.63
2018-10-05T10:23:51.530Z,81.75
2018-10-05T10:25:44.533Z,84.44
2018-10-05T10:26:44.589Z,82.23
2018-10-05T10:28:37.689Z,77.51
2018-10-05T10:29:37.648Z,80.50
2018-10-05T10:31:30.661Z,78.28
2018-10-05T10:32:30.723Z,77.48
2018-10-05T10:34:23.732Z,79.60
2018-10-05T10:35:23.781Z,80.88
2018-10-05T10:37:16.774Z,78.19
2018-10-05T10:38:16.838Z,79.63
2018-10-05T10:40:09.860Z,78.33
2018-10-05T10:41:09.917Z,79.28
2018-10-05T10:43:02.904Z,77.36
2018-10-05T10:44:02.969Z,74.96
2018-10-05T10:45:55.974Z,75.24
2018-10-05T10:46:56.031Z,75.73
2018-10-05T10:48:49.028Z,76.01
2018-10-05T10:49:49.084Z,75.92
2018-10-05T10:51:42.081Z,74.76
2018-10-05T10:52:42.142Z,73.61
2018-10-05T10:54:35.144Z,76.06
2018-10-05T10:55:35.199Z,74.13
2018-10-05T10:57:28.200Z,72.30
2018-10-05T10:58:28.259Z,73.84
2018-10-05T11:00:21.256Z,76.73
2018-10-05T11:01:21.313Z,75.19
2018-10-05T11:03:14.334Z,72.33
2018-10-05T11:04:14.453Z,72.59
2018-10-05T11:06:07.374Z,72.30
2018-10-05T11:07:07.432Z,71.76
2018-10-05T11:09:00.428Z,72.88
2018-10-05T11:10:00.485Z,72.33
2018-10-05T11:11:53.492Z,70.70
2018-10-05T11:12:53.560Z,70.60
2018-10-05T11:14:46.556Z,70.02
2018-10-05T11:15:46.666Z,69.54
2018-10-05T11:17:39.606Z,70.31
2018-10-05T11:18:39.669Z,69.09
2018-10-05T11:20:32.670Z,70.06
2018-10-05T11:21:32.729Z,69.77
2018-10-05T11:23:25.810Z,70.25
2018-10-05T11:24:25.786Z,70.54
2018-10-05T11:26:18.790Z,67.84
2018-10-05T11:27:18.847Z,68.04
2018-10-05T11:29:11.851Z,68.04
2018-10-05T11:30:11.905Z,68.80
2018-10-05T11:32:05.410Z,68.80
2018-10-05T11:33:05.470Z,68.23
2018-10-05T11:34:58.499Z,68.04
2018-10-05T11:35:58.529Z,67.84
2018-10-05T11:37:51.525Z,68.42
2018-10-05T11:38:51.592Z,69.09
2018-10-05T11:40:44.634Z,70.73
2018-10-05T11:41:44.649Z,69.67
2018-10-05T11:43:37.638Z,68.99
2018-10-05T11:44:37.705Z,67.94
2018-10-05T11:46:30.919Z,66.88
2018-10-05T11:47:30.803Z,67.84
2018-10-05T11:49:23.803Z,68.04
2018-10-05T11:50:23.862Z,67.74
2018-10-05T11:52:16.876Z,67.74
2018-10-05T11:53:16.917Z,68.07
2018-10-05T11:55:09.927Z,65.56
2018-10-05T11:56:09.975Z,68.07
2018-10-05T11:58:02.967Z,67.46
2018-10-05T11:59:03.029Z,66.39
2018-10-05T12:00:56.029Z,69.13
2018-10-05T12:01:56.086Z,67.58
2018-10-05T12:03:49.102Z,66.72
2018-10-05T12:04:49.164Z,66.14
2018-10-05T12:06:42.168Z,67.97
2018-10-05T12:07:42.217Z,66.91
2018-10-05T12:09:35.225Z,66.85
2018-10-05T12:10:35.287Z,65.88
2018-10-05T12:12:28.275Z,66.85
2018-10-05T12:13:28.391Z,65.98
2018-10-05T12:15:21.849Z,64.89
2018-10-05T12:16:21.902Z,65.17
2018-10-05T12:18:14.902Z,64.89
2018-10-05T12:19:15.225Z,64.79
2018-10-05T12:21:07.962Z,65.08
2018-10-05T12:22:08.019Z,65.08
2018-10-05T12:24:01.056Z,65.95
2018-10-05T12:25:01.073Z,65.56
2018-10-05T12:26:54.072Z,65.98
2018-10-05T12:27:54.125Z,65.88
2018-10-05T12:29:47.131Z,64.53
2018-10-05T12:30:47.188Z,65.11
2018-10-05T12:32:40.180Z,65.01
2018-10-05T12:33:40.242Z,65.20
2018-10-05T12:35:33.241Z,65.78
2018-10-05T12:36:33.297Z,66.08
2018-10-05T12:38:26.290Z,66.17
2018-10-05T12:39:26.355Z,66.75
2018-10-05T12:41:19.352Z,67.71
2018-10-05T12:42:19.409Z,66.85
2018-10-05T12:44:12.402Z,67.43
2018-10-05T12:45:12.470Z,65.88
2018-10-05T12:47:05.470Z,64.43
2018-10-05T12:48:05.528Z,63.95
2018-10-05T12:49:58.608Z,65.11
2018-10-05T12:50:58.583Z,64.34
2018-10-05T12:52:52.085Z,65.30
2018-10-05T12:53:52.143Z,65.30
2018-10-05T12:55:45.155Z,63.57
2018-10-05T12:56:45.212Z,65.01
2018-10-05T12:58:38.715Z,63.70
2018-10-05T12:59:38.778Z,64.47
2018-10-05T13:01:31.777Z,63.70
2018-10-05T13:02:31.833Z,64.56
2018-10-05T13:04:24.826Z,63.50
2018-10-05T13:05:24.891Z,63.60
2018-10-05T13:07:17.889Z,63.57
2018-10-05T13:08:17.949Z,64.08
2018-10-05T13:10:10.946Z,63.67
2018-10-05T13:11:11.003Z,64.28
2018-10-05T13:13:04.132Z,63.50
2018-10-05T13:14:04.085Z,63.50
2018-10-05T13:15:57.058Z,64.47
2018-10-05T13:16:58.077Z,64.47
2018-10-05T13:18:50.145Z,63.60
2018-10-05T13:19:50.198Z,63.79
2018-10-05T13:21:43.236Z,64.76
2018-10-05T13:22:43.263Z,65.05
2018-10-05T13:24:36.299Z,64.08
2018-10-05T13:25:36.314Z,65.14
2018-10-05T13:27:29.312Z,64.43
2018-10-05T13:28:29.376Z,65.14
2018-10-05T13:30:22.368Z,64.28
2018-10-05T13:31:22.430Z,63.50
2018-10-05T13:33:15.443Z,61.86
2018-10-05T13:34:15.500Z,61.86
2018-10-05T13:36:08.501Z,61.12
2018-10-05T13:37:08.597Z,61.89
2018-10-05T13:39:01.557Z,61.89
2018-10-05T13:40:01.627Z,61.86
2018-10-05T13:41:54.731Z,61.19
2018-10-05T13:42:54.677Z,60.83
2018-10-05T13:44:47.674Z,60.44
2018-10-05T13:45:47.739Z,59.96
2018-10-05T13:47:40.739Z,58.80
2018-10-05T13:48:40.796Z,58.12
2018-10-05T13:50:33.788Z,58.42
2018-10-05T13:51:33.852Z,58.25
2018-10-05T13:53:26.852Z,57.87
2018-10-05T13:54:26.910Z,57.67
2018-10-05T13:56:19.912Z,55.99
2018-10-05T13:57:19.973Z,54.66
2018-10-05T13:59:12.968Z,53.87
2018-10-05T14:00:13.052Z,53.51
2018-10-05T14:02:06.592Z,51.72
2018-10-05T14:03:06.622Z,49.90
2018-10-05T14:04:59.616Z,48.44
2018-10-05T14:05:59.689Z,48.37
2018-10-05T14:07:52.689Z,48.57
2018-10-05T14:08:52.776Z,48.88
2018-10-05T14:10:45.749Z,47.32
2018-10-05T14:11:45.809Z,46.94
2018-10-05T14:13:38.817Z,45.17
2018-10-05T14:14:38.871Z,45.41
2018-10-05T14:16:31.875Z,46.55
2018-10-05T14:17:31.935Z,47.77
2018-10-05T14:19:24.934Z,48.30
2018-10-05T14:20:25.007Z,48.18
2018-10-05T14:22:18.005Z,51.06
2018-10-05T14:23:18.067Z,51.35
2018-10-05T14:25:11.068Z,51.51
2018-10-05T14:26:11.131Z,52.48
2018-10-05T14:28:04.150Z,53.03
2018-10-05T14:29:04.195Z,54.39
2018-10-05T14:30:57.192Z,54.19
2018-10-05T14:31:57.255Z,54.97
2018-10-05T14:33:50.307Z,55.16
2018-10-05T14:34:50.320Z,53.71
2018-10-05T14:36:43.336Z,53.71
2018-10-05T14:37:43.396Z,53.71
2018-10-05T14:39:36.399Z,54.10
2018-10-05T14:40:36.490Z,53.42
2018-10-05T14:42:29.468Z,53.03
2018-10-05T14:43:29.528Z,52.84
2018-10-05T14:45:22.530Z,53.23
2018-10-05T14:46:22.609Z,53.71
2018-10-05T14:48:15.597Z,53.52
2018-10-05T14:49:15.656Z,54.39
2018-10-05T14:51:08.650Z,53.33
2018-10-05T14:52:08.718Z,53.23
2018-10-05T14:54:01.752Z,54.27
2018-10-05T14:55:01.774Z,54.46
2018-10-05T14:56:54.818Z,54.65
2018-10-05T14:57:54.834Z,54.17
2018-10-05T14:59:47.824Z,54.07
2018-10-05T15:00:47.890Z,54.75
2018-10-05T15:02:40.890Z,54.36
2018-10-05T15:03:40.949Z,55.04
2018-10-05T15:05:33.947Z,55.81
2018-10-05T15:06:34.013Z,57.26
2018-10-05T15:08:27.035Z,55.81
2018-10-05T15:09:27.079Z,55.98
2018-10-05T15:11:20.077Z,55.81
2018-10-05T15:12:20.136Z,55.49
2018-10-05T15:14:13.138Z,55.59
2018-10-05T15:15:13.196Z,55.98
2018-10-05T15:17:06.222Z,55.20
2018-10-05T15:18:06.276Z,55.20
2018-10-05T15:19:59.293Z,56.84
2018-10-05T15:20:59.359Z,56.56
2018-10-05T15:22:52.359Z,56.74
2018-10-05T15:23:52.419Z,57.52
2018-10-05T15:25:45.414Z,56.84
2018-10-05T15:26:45.478Z,58.00
2018-10-05T15:28:38.477Z,56.56
2018-10-05T15:29:38.536Z,57.81
2018-10-05T15:31:31.532Z,58.39
2018-10-05T15:32:31.601Z,59.06
2018-10-05T15:34:24.602Z,56.65
2018-10-05T15:35:24.660Z,57.62
2018-10-05T15:37:17.660Z,57.81
2018-10-05T15:38:17.718Z,58.26
2018-10-05T15:40:10.713Z,59.23
2018-10-05T15:41:10.793Z,57.59
2018-10-05T15:43:03.778Z,58.94
2018-10-05T15:44:03.834Z,59.80
2018-10-05T15:45:56.830Z,58.72
2018-10-05T15:46:56.894Z,59.78
2018-10-05T15:48:49.910Z,60.06
2018-10-05T15:49:49.968Z,59.78
2018-10-05T15:51:42.964Z,60.93
2018-10-05T15:52:43.029Z,59.39
2018-10-05T15:54:36.030Z,58.81
2018-10-05T15:55:36.086Z,59.58
2018-10-05T15:57:29.089Z,59.00
2018-10-05T15:58:29.147Z,59.20
2018-10-05T16:00:22.137Z,59.48
2018-10-05T16:01:22.201Z,59.00
2018-10-05T16:03:15.201Z,59.68
2018-10-05T16:04:15.260Z,59.97
2018-10-05T16:06:08.248Z,60.71
2018-10-05T16:07:08.312Z,60.71
2018-10-05T16:09:01.310Z,61.87
2018-10-05T16:10:01.367Z,63.41
2018-10-05T16:11:54.418Z,63.41
2018-10-05T16:12:54.480Z,61.87
2018-10-05T16:14:47.424Z,65.69
2018-10-05T16:15:47.478Z,65.01
2018-10-05T16:17:40.497Z,66.46
2018-10-05T16:18:40.602Z,69.45
2018-10-05T16:20:33.560Z,70.66
2018-10-05T16:21:33.604Z,71.53
2018-10-05T16:23:26.602Z,75.19
2018-10-05T16:24:26.659Z,80.25
2018-10-05T16:26:19.653Z,82.37
2018-10-05T16:27:19.717Z,81.30
2018-10-05T16:29:12.717Z,85.64
2018-10-05T16:30:12.772Z,88.33
2018-10-05T16:32:05.760Z,91.46
2018-10-05T16:33:05.824Z,93.29
2018-10-05T16:34:58.825Z,95.02
2018-10-05T16:35:58.878Z,95.45
2018-10-05T16:37:51.869Z,96.13
2018-10-05T16:38:51.932Z,93.34
2018-10-05T16:40:44.927Z,94.59
2018-10-05T16:41:44.986Z,95.94
2018-10-05T16:43:38.016Z,90.75
2018-10-05T16:44:38.039Z,92.47
2018-10-05T16:46:31.031Z,96.42
2018-10-05T16:47:31.093Z,96.90
2018-10-05T16:49:24.116Z,97.47
2018-10-05T16:50:24.150Z,97.52
2018-10-05T16:52:17.148Z,96.66
2018-10-05T16:53:17.211Z,95.50
2018-10-05T16:55:10.209Z,93.63
2018-10-05T16:56:10.268Z,94.31
2018-10-05T16:58:03.258Z,92.38
2018-10-05T16:59:03.322Z,96.22
2018-10-05T17:00:56.319Z,95.45
2018-10-05T17:01:56.389Z,94.69
2018-10-05T17:03:49.411Z,92.96
2018-10-05T17:04:49.434Z,92.19
2018-10-05T17:06:42.434Z,91.66
2018-10-05T17:07:42.493Z,89.55
2018-10-05T17:09:35.492Z,86.77
2018-10-05T17:10:35.662Z,84.81
2018-10-05T17:12:28.547Z,81.30
2018-10-05T17:13:28.609Z,78.96
2018-10-05T17:15:21.608Z,77.90
2018-10-05T17:16:21.666Z,77.04
2018-10-05T17:18:15.163Z,78.96
2018-10-05T17:19:15.225Z,78.47
2018-10-05T17:21:08.224Z,75.79
2018-10-05T17:22:08.275Z,75.40
2018-10-05T17:24:01.272Z,72.72
2018-10-05T17:25:01.329Z,70.86
2018-10-05T17:26:54.317Z,70.38
2018-10-05T17:27:54.382Z,68.75
2018-10-05T17:29:47.382Z,66.55
2018-10-05T17:30:47.438Z,66.64
2018-10-05T17:32:40.428Z,63.67
2018-10-05T17:33:40.493Z,61.27
2018-10-05T17:35:33.490Z,59.16
2018-10-05T17:36:33.550Z,58.37
2018-10-05T17:38:26.538Z,57.89
2018-10-05T17:39:26.601Z,57.60
2018-10-05T17:41:19.604Z,57.50
2018-10-05T17:42:19.654Z,56.07
2018-10-05T17:44:12.653Z,59.80
2018-10-05T17:45:12.729Z,61.05
2018-10-05T17:47:05.741Z,64.50
2018-10-05T17:48:05.802Z,64.02
2018-10-05T17:49:58.804Z,66.03
2018-10-05T17:50:58.859Z,62.49
2018-10-05T17:52:51.858Z,59.90
2018-10-05T17:53:51.921Z,59.71
2018-10-05T17:55:45.008Z,56.52
2018-10-05T17:56:45.072Z,56.04
2018-10-05T17:58:37.981Z,62.65
2018-10-05T17:59:38.041Z,59.97
2018-10-05T18:01:31.040Z,58.81
2018-10-05T18:02:31.092Z,58.91
2018-10-05T18:04:24.095Z,59.58
2018-10-05T18:05:24.151Z,59.20
2018-10-05T18:07:17.149Z,56.32
2018-10-05T18:08:17.239Z,56.42
2018-10-05T18:10:10.211Z,54.60
2018-10-05T18:11:10.267Z,54.67
2018-10-05T18:13:03.281Z,54.03
2018-10-05T18:14:03.344Z,53.42
2018-10-05T18:15:56.340Z,53.91
2018-10-05T18:16:56.395Z,53.62
2018-10-05T18:18:50.891Z,53.33
2018-10-05T18:19:50.953Z,53.62
2018-10-05T18:21:43.950Z,51.61
2018-10-05T18:22:44.007Z,51.70
2018-10-05T18:24:37.005Z,50.65
2018-10-05T18:25:37.061Z,51.89
2018-10-05T18:27:30.047Z,51.22
2018-10-05T18:28:30.110Z,51.99
2018-10-05T18:30:23.105Z,49.88
2018-10-05T18:31:23.160Z,48.93
2018-10-05T18:33:16.152Z,48.83
2018-10-05T18:34:16.213Z,49.98
2018-10-05T18:36:09.213Z,49.21
2018-10-05T18:37:09.263Z,48.61
2018-10-05T18:39:02.253Z,49.02
2018-10-05T18:40:02.311Z,49.79
2018-10-05T18:41:55.308Z,48.83
2018-10-05T18:42:55.359Z,48.23
2018-10-05T18:44:48.356Z,46.98
2018-10-05T18:45:48.410Z,47.85
2018-10-05T18:47:41.395Z,47.56
2018-10-05T18:48:41.458Z,47.47